createdAt,value
2023-02-01T00:01:08.481Z,5.32
2023-02-01T00:05:21.651Z,5.30
2023-02-01T00:09:34.038Z,5.18
2023-02-01T00:13:46.453Z,5.40
2023-02-01T00:17:59.367Z,2.03
2023-02-01T00:22:11.833Z,4.63
2023-02-01T00:26:31.779Z,1.67
2023-02-01T00:30:44.144Z,4.90
2023-02-01T00:34:56.575Z,2.10
2023-02-01T00:39:09.340Z,4.72
2023-02-01T00:43:22.754Z,1.20
2023-02-01T00:47:35.194Z,4.25
2023-02-01T00:51:47.527Z,1.40
2023-02-01T00:56:00.919Z,4.13
2023-02-01T01:00:13.605Z,2.15
2023-02-01T01:04:28.257Z,1.15
2023-02-01T01:08:44.101Z,1.20
2023-02-01T01:12:56.414Z,1.17
2023-02-01T01:17:08.929Z,1.05
2023-02-01T01:21:22.485Z,1.40
2023-02-01T01:25:39.615Z,1.42
2023-02-01T01:29:52.042Z,1.48
2023-02-01T01:34:04.767Z,0.93
2023-02-01T01:38:17.255Z,4.65
2023-02-01T01:42:29.599Z,4.38
2023-02-01T01:46:42.172Z,1.23
2023-02-01T01:51:11.542Z,0.88
2023-02-01T01:55:26.124Z,1.35
2023-02-01T01:59:41.528Z,1.48
2023-02-01T02:03:54.933Z,1.38
2023-02-01T02:08:07.390Z,3.42
2023-02-01T02:12:19.724Z,3.53
2023-02-01T02:16:38.155Z,2.10
2023-02-01T02:20:56.069Z,6.75
2023-02-01T02:25:56.091Z,7.03
2023-02-01T02:30:45.850Z,2.63
2023-02-01T02:35:17.576Z,2.03
2023-02-01T02:39:56.072Z,6.90
2023-02-01T02:44:56.430Z,2.38
2023-02-01T02:49:14.778Z,3.45
2023-02-01T02:54:35.810Z,2.10
2023-02-01T02:59:07.323Z,1.83
2023-02-01T03:03:38.494Z,6.75
2023-02-01T03:08:12.933Z,3.65
2023-02-01T03:12:44.286Z,3.03
2023-02-01T03:17:04.978Z,2.33
2023-02-01T03:21:25.254Z,2.28
2023-02-01T03:25:39.685Z,2.25
2023-02-01T03:30:11.720Z,2.25
2023-02-01T03:34:24.633Z,2.55
2023-02-01T03:39:06.779Z,2.58
2023-02-01T03:43:23.087Z,3.25
2023-02-01T03:47:49.364Z,3.53
2023-02-01T03:52:05.094Z,2.88
2023-02-01T03:56:22.828Z,2.30
2023-02-01T04:00:36.454Z,8.20
2023-02-01T04:04:48.924Z,3.03
2023-02-01T04:09:03.993Z,1.73
2023-02-01T04:13:16.692Z,1.63
2023-02-01T04:17:29.288Z,1.63
2023-02-01T04:21:42.807Z,2.63
2023-02-01T04:25:56.040Z,1.15
2023-02-01T04:30:11.974Z,2.22
2023-02-01T04:34:26.010Z,1.27
2023-02-01T04:38:38.291Z,1.10
2023-02-01T04:42:50.725Z,1.42
2023-02-01T04:47:04.531Z,1.08
2023-02-01T04:51:16.844Z,1.13
2023-02-01T04:55:30.297Z,1.52
2023-02-01T04:59:42.747Z,1.40
2023-02-01T05:03:55.173Z,1.35
2023-02-01T05:08:07.506Z,1.60
2023-02-01T05:12:38.519Z,1.27
2023-02-01T05:16:50.841Z,1.33
2023-02-01T05:21:03.242Z,1.50
2023-02-01T05:25:15.766Z,1.20
2023-02-01T05:29:28.211Z,0.88
2023-02-01T05:33:40.746Z,1.38
2023-02-01T05:37:52.996Z,0.85
2023-02-01T05:42:05.372Z,3.50
2023-02-01T05:46:17.802Z,5.80
2023-02-01T05:50:30.131Z,2.20
2023-02-01T05:54:43.355Z,1.58
2023-02-01T05:58:55.786Z,1.60
2023-02-01T06:03:08.146Z,1.17
2023-02-01T06:07:20.490Z,0.80
2023-02-01T06:11:36.275Z,4.38
2023-02-01T06:15:49.021Z,1.75
2023-02-01T06:20:02.151Z,2.20
2023-02-01T06:24:14.626Z,1.50
2023-02-01T06:28:26.982Z,1.40
2023-02-01T06:32:40.577Z,1.75
2023-02-01T06:36:53.055Z,2.70
2023-02-01T06:41:06.420Z,2.92
2023-02-01T06:45:20.293Z,2.55
2023-02-01T06:49:32.635Z,2.72
2023-02-01T06:53:46.524Z,1.98
2023-02-01T06:57:58.952Z,2.80
2023-02-01T07:02:12.999Z,2.00
2023-02-01T07:06:25.851Z,1.40
2023-02-01T07:10:39.095Z,2.13
2023-02-01T07:14:51.533Z,5.80
2023-02-01T07:19:05.536Z,5.35
2023-02-01T07:23:17.968Z,2.63
2023-02-01T07:27:30.335Z,2.17
2023-02-01T07:31:42.730Z,1.48
2023-02-01T07:35:55.196Z,1.05
2023-02-01T07:40:07.966Z,0.55
2023-02-01T07:44:24.009Z,4.75
2023-02-01T07:48:36.384Z,4.20
2023-02-01T07:52:48.850Z,4.07
2023-02-01T07:57:01.219Z,3.78
2023-02-01T08:01:25.844Z,3.55
2023-02-01T08:05:38.235Z,4.03
2023-02-01T08:09:50.619Z,1.52
2023-02-01T08:14:03.082Z,4.40
2023-02-01T08:18:17.795Z,4.13
2023-02-01T08:22:34.410Z,5.43
2023-02-01T08:26:46.883Z,4.70
2023-02-01T08:30:59.256Z,4.20
2023-02-01T08:35:11.793Z,3.30
2023-02-01T08:39:24.068Z,2.90
2023-02-01T08:43:38.075Z,3.22
2023-02-01T08:47:58.685Z,4.32
2023-02-01T08:52:15.963Z,4.55
2023-02-01T08:56:29.153Z,5.57
2023-02-01T09:00:42.459Z,7.53
2023-02-01T09:04:55.084Z,6.30
2023-02-01T09:09:07.392Z,15.02
2023-02-01T09:13:19.772Z,16.20
2023-02-01T09:17:32.151Z,18.15
2023-02-01T09:21:44.512Z,15.90
2023-02-01T09:26:01.535Z,14.93
2023-02-01T09:30:19.152Z,14.30
2023-02-01T09:34:32.636Z,10.05
2023-02-01T09:38:52.855Z,5.63
2023-02-01T09:43:15.023Z,5.28
2023-02-01T09:47:29.027Z,4.38
2023-02-01T09:51:49.686Z,4.90
2023-02-01T09:56:08.105Z,5.75
2023-02-01T10:00:31.438Z,5.22
2023-02-01T10:04:43.887Z,4.10
2023-02-01T10:09:00.541Z,3.97
2023-02-01T10:13:24.756Z,3.42
2023-02-01T10:18:11.970Z,2.80
2023-02-01T10:23:11.480Z,2.90
2023-02-01T10:27:32.515Z,3.25
2023-02-01T10:31:45.699Z,3.33
2023-02-01T10:36:08.037Z,3.83
2023-02-01T10:40:26.337Z,3.95
2023-02-01T10:44:46.043Z,4.47
2023-02-01T10:49:02.114Z,3.03
2023-02-01T10:53:30.542Z,4.10
2023-02-01T10:57:42.910Z,4.35
2023-02-01T11:02:06.818Z,4.35
2023-02-01T11:06:19.399Z,4.20
2023-02-01T11:10:43.827Z,4.65
2023-02-01T11:15:23.663Z,3.90
2023-02-01T11:19:36.284Z,3.97
2023-02-01T11:23:48.921Z,5.95
2023-02-01T11:28:03.146Z,3.65
2023-02-01T11:32:19.116Z,3.85
2023-02-01T11:36:34.012Z,4.20
2023-02-01T11:40:46.589Z,3.70
2023-02-01T11:45:22.152Z,3.78
2023-02-01T11:49:34.756Z,3.38
2023-02-01T11:54:17.443Z,4.03
2023-02-01T11:58:37.554Z,2.95
2023-02-01T12:03:01.741Z,2.90
2023-02-01T12:07:53.778Z,3.33
2023-02-01T12:12:20.854Z,3.42
2023-02-01T12:17:05.924Z,2.45
2023-02-01T12:21:53.627Z,2.70
2023-02-01T12:26:37.683Z,2.83
2023-02-01T12:31:11.483Z,3.35
2023-02-01T12:35:45.791Z,2.30
2023-02-01T12:40:23.388Z,3.00
2023-02-01T12:45:00.138Z,2.50
2023-02-01T12:49:35.129Z,3.60
2023-02-01T12:53:53.147Z,4.15
2023-02-01T12:58:24.289Z,3.78
2023-02-01T13:03:16.862Z,4.57
2023-02-01T13:07:39.573Z,3.05
2023-02-01T13:11:55.616Z,3.47
2023-02-01T13:16:25.778Z,2.72
2023-02-01T13:20:59.946Z,3.80
2023-02-01T13:25:17.486Z,4.07
2023-02-01T13:29:31.742Z,4.35
2023-02-01T13:34:05.286Z,4.72
2023-02-01T13:38:56.270Z,5.07
2023-02-01T13:43:15.746Z,4.60
2023-02-01T13:47:28.498Z,4.40
2023-02-01T13:51:52.035Z,4.28
2023-02-01T13:56:28.417Z,4.43
2023-02-01T14:00:41.982Z,4.35
2023-02-01T14:04:54.391Z,5.00
2023-02-01T14:09:10.261Z,4.55
2023-02-01T14:13:38.247Z,5.43
2023-02-01T14:17:50.822Z,4.70
2023-02-01T14:22:25.514Z,5.38
2023-02-01T14:26:53.597Z,6.47
2023-02-01T14:31:19.461Z,5.20
2023-02-01T14:35:31.898Z,6.00
2023-02-01T14:39:47.409Z,10.05
2023-02-01T14:44:02.718Z,7.97
2023-02-01T14:48:14.971Z,7.03
2023-02-01T14:52:35.928Z,7.47
2023-02-01T14:56:48.349Z,6.70
2023-02-01T15:01:07.451Z,6.07
2023-02-01T15:05:37.635Z,6.63
2023-02-01T15:09:50.403Z,7.18
2023-02-01T15:14:03.004Z,6.68
2023-02-01T15:18:19.863Z,6.65
2023-02-01T15:22:34.103Z,6.90
2023-02-01T15:26:46.568Z,5.78
2023-02-01T15:31:02.580Z,6.07
2023-02-01T15:35:37.481Z,5.47
2023-02-01T15:40:11.905Z,6.18
2023-02-01T15:44:39.215Z,6.10
2023-02-01T15:48:55.769Z,7.70
2023-02-01T15:53:18.964Z,8.00
2023-02-01T15:57:35.705Z,9.27
2023-02-01T16:01:49.522Z,9.40
2023-02-01T16:06:08.661Z,10.57
2023-02-01T16:10:28.237Z,13.33
2023-02-01T16:14:41.865Z,12.95
2023-02-01T16:18:54.281Z,15.85
2023-02-01T16:23:11.800Z,17.02
2023-02-01T16:27:24.975Z,15.10
2023-02-01T16:31:40.724Z,17.85
2023-02-01T16:35:58.965Z,17.70
2023-02-01T16:40:19.181Z,19.20
2023-02-01T16:48:50.210Z,22.70
2023-02-01T16:53:02.989Z,25.85
2023-02-01T16:57:17.905Z,32.83
2023-02-01T17:01:30.376Z,41.83
2023-02-01T17:05:42.739Z,50.50
2023-02-01T17:09:55.999Z,51.58
2023-02-01T17:14:17.663Z,51.05
2023-02-01T17:18:33.140Z,48.28
2023-02-01T17:22:45.510Z,50.42
2023-02-01T17:26:57.943Z,51.83
2023-02-01T17:31:15.942Z,53.85
2023-02-01T17:35:31.504Z,17.60
2023-02-01T17:39:55.813Z,52.50
2023-02-01T17:44:11.067Z,49.00
2023-02-01T17:48:24.068Z,51.28
2023-02-01T17:52:36.619Z,50.72
2023-02-01T17:56:49.336Z,51.22
2023-02-01T18:01:01.886Z,48.65
2023-02-01T18:05:22.162Z,47.03
2023-02-01T18:09:34.720Z,41.72
2023-02-01T18:13:48.658Z,39.83
2023-02-01T18:18:01.100Z,42.58
2023-02-01T18:22:18.542Z,39.67
2023-02-01T18:26:31.334Z,29.25
2023-02-01T18:30:48.665Z,22.83
2023-02-01T18:35:01.643Z,18.50
2023-02-01T18:39:14.423Z,17.85
2023-02-01T18:43:27.556Z,17.75
2023-02-01T18:47:40.656Z,19.60
2023-02-01T18:51:53.328Z,18.75
2023-02-01T18:56:06.504Z,17.55
2023-02-01T19:00:21.163Z,16.27
2023-02-01T19:04:33.532Z,15.20
2023-02-01T19:08:47.203Z,15.10
2023-02-01T19:13:00.029Z,15.00
2023-02-01T19:17:12.506Z,14.20
2023-02-01T19:21:25.076Z,14.23
2023-02-01T19:25:37.721Z,13.52
2023-02-01T19:29:50.274Z,13.85
2023-02-01T19:34:02.770Z,13.98
2023-02-01T19:38:15.110Z,14.73
2023-02-01T19:42:30.453Z,14.50
2023-02-01T19:46:43.491Z,13.60
2023-02-01T19:50:56.243Z,13.07
2023-02-01T19:55:10.025Z,11.30
2023-02-01T19:59:23.868Z,14.18
2023-02-01T20:03:35.574Z,13.25
2023-02-01T20:07:49.261Z,11.73
2023-02-01T20:12:03.837Z,12.25
2023-02-01T20:16:16.365Z,12.98
2023-02-01T20:20:29.991Z,13.45
2023-02-01T20:24:43.823Z,16.63
2023-02-01T20:28:57.585Z,14.70
2023-02-01T20:33:10.932Z,13.73
2023-02-01T20:37:23.335Z,13.02
2023-02-01T20:41:35.873Z,12.40
2023-02-01T20:45:50.001Z,13.65
2023-02-01T20:50:02.975Z,14.07
2023-02-01T20:54:15.442Z,12.85
2023-02-01T20:58:27.947Z,13.02
2023-02-01T21:02:40.470Z,11.02
2023-02-01T21:06:53.707Z,10.82
2023-02-01T21:11:09.741Z,11.38
2023-02-01T21:15:25.207Z,11.75
2023-02-01T21:19:44.024Z,12.25
2023-02-01T21:23:57.553Z,4.25
2023-02-01T21:28:13.483Z,13.57
2023-02-01T21:32:26.035Z,12.95
2023-02-01T21:36:38.589Z,15.40
2023-02-01T21:41:14.178Z,16.00
2023-02-01T21:45:26.881Z,12.93
2023-02-01T21:49:39.390Z,13.63
2023-02-01T21:53:51.822Z,13.50
2023-02-01T21:58:04.489Z,11.35
2023-02-01T22:02:17.806Z,9.88
2023-02-01T22:06:34.071Z,8.93
2023-02-01T22:10:46.715Z,8.73
2023-02-01T22:14:59.103Z,8.10
2023-02-01T22:19:12.828Z,6.93
2023-02-01T22:23:28.015Z,7.68
2023-02-01T22:28:30.825Z,7.15
2023-02-01T22:32:15.317Z,6.65
2023-02-01T22:36:28.005Z,5.75
2023-02-01T22:40:40.237Z,6.32
2023-02-01T22:44:52.559Z,6.32
2023-02-01T22:49:06.739Z,6.20
2023-02-01T22:53:21.218Z,5.97
2023-02-01T22:57:34.316Z,2.75
2023-02-01T23:01:46.908Z,3.03
2023-02-01T23:05:59.224Z,5.93
2023-02-01T23:10:13.084Z,6.03
2023-02-01T23:14:25.608Z,6.22
2023-02-01T23:18:38.353Z,6.38
2023-02-01T23:22:50.805Z,6.35
2023-02-01T23:27:05.773Z,7.13
2023-02-01T23:31:18.476Z,7.18
2023-02-01T23:35:30.781Z,8.18
2023-02-01T23:39:43.189Z,6.65
2023-02-01T23:43:58.303Z,7.05
2023-02-01T23:48:10.657Z,6.95
2023-02-01T23:52:23.506Z,6.43
2023-02-01T23:56:42.558Z,5.72
